createdAt,value
2018-01-12T00:00:53.014Z,38.57
2018-01-12T00:03:20.472Z,38.50
2018-01-12T00:05:47.966Z,39.43
2018-01-12T00:08:15.418Z,37.87
2018-01-12T00:10:43.654Z,40.50
2018-01-12T00:13:11.110Z,37.77
2018-01-12T00:15:39.354Z,37.60
2018-01-12T00:18:06.842Z,39.53
2018-01-12T00:20:34.291Z,36.67
2018-01-12T00:23:01.758Z,40.20
2018-01-12T00:25:29.220Z,39.00
2018-01-12T00:27:56.726Z,39.03
2018-01-12T00:30:24.182Z,36.10
2018-01-12T00:32:51.776Z,35.93
2018-01-12T00:35:19.222Z,36.03
2018-01-12T00:37:48.160Z,38.53
2018-01-12T00:40:15.648Z,34.10
2018-01-12T00:42:43.126Z,36.27
2018-01-12T00:45:10.577Z,37.50
2018-01-12T00:47:38.851Z,39.17
2018-01-12T00:50:06.343Z,35.93
2018-01-12T00:52:33.866Z,37.60
2018-01-12T00:55:01.329Z,36.77
2018-01-12T00:57:28.808Z,36.23
2018-01-12T00:59:57.066Z,38.90
2018-01-12T01:02:24.645Z,32.73
2018-01-12T01:04:52.092Z,38.23
2018-01-12T01:07:19.537Z,37.17
2018-01-12T01:09:47.810Z,34.97
2018-01-12T01:12:15.292Z,38.50
2018-01-12T01:14:42.813Z,33.67
2018-01-12T01:17:11.023Z,33.33
2018-01-12T01:19:38.491Z,33.07
2018-01-12T01:22:05.988Z,33.77
2018-01-12T01:24:33.450Z,32.57
2018-01-12T01:27:00.954Z,32.00
2018-01-12T01:29:28.438Z,31.07
2018-01-12T01:31:55.934Z,31.57
2018-01-12T01:34:23.420Z,30.20
2018-01-12T01:36:50.886Z,29.60
2018-01-12T01:39:18.334Z,29.30
2018-01-12T01:41:45.811Z,27.87
2018-01-12T01:44:13.311Z,27.10
2018-01-12T01:46:40.784Z,26.70
2018-01-12T01:49:08.235Z,25.83
2018-01-12T01:51:36.558Z,25.37
2018-01-12T01:54:04.039Z,26.10
2018-01-12T01:56:31.501Z,27.37
2018-01-12T01:58:59.409Z,23.87
2018-01-12T02:01:26.850Z,22.80
2018-01-12T02:03:55.118Z,24.33
2018-01-12T02:06:22.601Z,21.13
2018-01-12T02:08:50.075Z,22.20
2018-01-12T02:11:17.528Z,24.73
2018-01-12T02:13:45.014Z,22.00
2018-01-12T02:16:12.467Z,21.43
2018-01-12T02:18:39.925Z,24.37
2018-01-12T02:21:07.437Z,25.13
2018-01-12T02:23:34.906Z,24.97
2018-01-12T02:26:02.377Z,27.07
2018-01-12T02:28:30.678Z,28.50
2018-01-12T02:30:58.896Z,26.80
2018-01-12T02:33:26.374Z,27.37
2018-01-12T02:35:53.857Z,30.53
2018-01-12T02:38:21.306Z,30.07
2018-01-12T02:40:48.774Z,33.10
2018-01-12T02:43:16.262Z,31.37
2018-01-12T02:45:44.498Z,33.53
2018-01-12T02:48:11.968Z,35.40
2018-01-12T02:50:39.416Z,36.80
2018-01-12T02:53:06.884Z,33.93
2018-01-12T02:55:34.339Z,37.07
2018-01-12T02:58:01.786Z,37.93
2018-01-12T03:00:29.361Z,39.07
2018-01-12T03:02:57.549Z,37.80
2018-01-12T03:05:25.790Z,39.03
2018-01-12T03:07:53.247Z,40.03
2018-01-12T03:10:20.719Z,40.67
2018-01-12T03:12:48.307Z,42.13
2018-01-12T03:15:15.761Z,41.67
2018-01-12T03:17:43.995Z,43.00
2018-01-12T03:20:11.482Z,46.17
2018-01-12T03:22:38.938Z,42.63
2018-01-12T03:25:06.420Z,44.53
2018-01-12T03:27:33.875Z,44.83
2018-01-12T03:30:02.133Z,45.07
2018-01-12T03:32:29.602Z,46.07
2018-01-12T03:34:57.114Z,48.07
2018-01-12T03:37:25.403Z,48.90
2018-01-12T03:39:52.947Z,53.30
2018-01-12T03:42:20.434Z,47.13
2018-01-12T03:44:47.897Z,54.50
2018-01-12T03:47:15.398Z,57.23
2018-01-12T03:49:42.858Z,54.70
2018-01-12T03:52:10.314Z,58.43
2018-01-12T03:54:38.542Z,59.53
2018-01-12T03:57:06.006Z,61.97
2018-01-12T03:59:33.495Z,55.90
2018-01-12T04:02:00.934Z,61.37
2018-01-12T04:04:28.424Z,60.33
2018-01-12T04:06:55.883Z,57.93
2018-01-12T04:09:23.358Z,60.50
2018-01-12T04:11:51.596Z,59.70
2018-01-12T04:14:20.098Z,57.47
2018-01-12T04:16:48.342Z,60.53
2018-01-12T04:19:15.817Z,64.50
2018-01-12T04:21:43.300Z,64.77
2018-01-12T04:24:10.825Z,60.73
2018-01-12T04:26:38.226Z,59.30
2018-01-12T04:29:05.706Z,64.07
2018-01-12T04:31:33.214Z,63.63
2018-01-12T04:34:00.667Z,60.90
2018-01-12T04:36:28.148Z,62.00
2018-01-12T04:38:55.647Z,65.93
2018-01-12T04:41:23.123Z,66.70
2018-01-12T04:43:50.593Z,67.70
2018-01-12T04:46:18.077Z,61.17
2018-01-12T04:48:45.550Z,60.63
2018-01-12T04:51:13.075Z,61.33
2018-01-12T04:53:40.586Z,62.23
2018-01-12T04:56:08.852Z,58.40
2018-01-12T04:58:36.300Z,59.50
2018-01-12T05:01:03.793Z,62.70
2018-01-12T05:03:31.255Z,62.93
2018-01-12T05:05:58.757Z,58.33
2018-01-12T05:08:26.230Z,57.97
2018-01-12T05:10:53.723Z,58.93
2018-01-12T05:13:21.217Z,62.60
2018-01-12T05:15:48.683Z,57.57
2018-01-12T05:18:16.147Z,55.43
2018-01-12T05:20:43.639Z,55.13
2018-01-12T05:23:11.088Z,55.40
2018-01-12T05:25:38.571Z,58.57
2018-01-12T05:28:06.011Z,55.77
2018-01-12T05:30:33.465Z,60.60
2018-01-12T05:33:00.914Z,54.10
2018-01-12T05:35:28.391Z,54.43
2018-01-12T05:37:55.900Z,52.27
2018-01-12T05:40:23.371Z,51.87
2018-01-12T05:42:50.834Z,56.63
2018-01-12T05:45:18.315Z,50.63
2018-01-12T05:47:45.766Z,54.73
2018-01-12T05:50:13.985Z,49.47
2018-01-12T05:52:41.480Z,53.70
2018-01-12T05:55:08.942Z,53.60
2018-01-12T05:57:36.486Z,50.10
2018-01-12T06:00:03.944Z,44.03
2018-01-12T06:02:43.321Z,46.23
2018-01-12T06:05:22.654Z,47.70
2018-01-12T06:07:50.107Z,49.93
2018-01-12T06:10:17.556Z,45.20
2018-01-12T06:12:45.031Z,47.10
2018-01-12T06:15:12.536Z,46.27
2018-01-12T06:17:40.014Z,48.73
2018-01-12T06:20:08.261Z,46.03
2018-01-12T06:22:35.722Z,47.13
2018-01-12T06:25:03.215Z,49.40
2018-01-12T06:27:30.646Z,48.40
2018-01-12T06:29:58.136Z,49.43
2018-01-12T06:32:25.717Z,48.17
2018-01-12T06:34:53.170Z,51.57
2018-01-12T06:37:20.614Z,48.83
2018-01-12T06:39:48.067Z,49.60
2018-01-12T06:42:15.522Z,52.30
2018-01-12T06:44:42.994Z,52.37
2018-01-12T06:47:10.437Z,48.50
2018-01-12T06:49:37.903Z,49.70
2018-01-12T06:52:05.393Z,52.60
2018-01-12T06:54:32.838Z,51.93
2018-01-12T06:57:00.289Z,53.37
2018-01-12T06:59:27.798Z,51.57
2018-01-12T07:01:55.248Z,54.60
2018-01-12T07:04:22.727Z,49.00
2018-01-12T07:06:50.187Z,50.60
2018-01-12T07:09:18.424Z,53.57
2018-01-12T07:11:45.887Z,55.90
2018-01-12T07:14:13.379Z,55.60
2018-01-12T07:16:40.817Z,53.97
2018-01-12T07:19:08.298Z,58.57
2018-01-12T07:21:47.426Z,57.40
2018-01-12T07:24:14.902Z,57.27
2018-01-12T07:26:42.354Z,54.70
2018-01-12T07:29:09.830Z,59.13
2018-01-12T07:31:37.323Z,62.40
2018-01-12T07:34:04.783Z,61.07
2018-01-12T07:36:32.290Z,59.07
2018-01-12T07:39:00.507Z,59.13
2018-01-12T07:41:27.990Z,62.53
2018-01-12T07:43:55.446Z,65.37
2018-01-12T07:46:22.916Z,64.90
2018-01-12T07:48:50.375Z,65.40
2018-01-12T07:51:17.882Z,56.17
2018-01-12T07:53:45.322Z,64.33
2018-01-12T07:56:12.770Z,58.40
2018-01-12T07:58:40.276Z,66.03
2018-01-12T08:01:13.417Z,65.50
2018-01-12T08:03:40.920Z,63.83
2018-01-12T08:06:09.137Z,61.67
2018-01-12T08:08:36.617Z,59.53
2018-01-12T08:11:04.054Z,58.63
2018-01-12T08:13:31.523Z,61.97
2018-01-12T08:15:59.054Z,55.93
2018-01-12T08:18:26.499Z,63.20
2018-01-12T08:20:54.067Z,65.37
2018-01-12T08:23:21.510Z,59.40
2018-01-12T08:25:49.722Z,61.87
2018-01-12T08:28:17.201Z,66.77
2018-01-12T08:30:44.646Z,61.77
2018-01-12T08:33:12.159Z,60.67
2018-01-12T08:35:39.638Z,60.17
2018-01-12T08:38:07.142Z,63.27
2018-01-12T08:40:34.578Z,60.27
2018-01-12T08:43:02.090Z,62.40
2018-01-12T08:45:29.752Z,60.67
2018-01-12T08:47:57.962Z,61.07
2018-01-12T08:50:25.446Z,63.50
2018-01-12T08:52:52.963Z,60.17
2018-01-12T08:55:20.439Z,57.63
2018-01-12T08:57:47.907Z,58.50
2018-01-12T09:00:15.423Z,61.57
2018-01-12T09:02:42.867Z,62.67
2018-01-12T09:05:10.334Z,61.57
2018-01-12T09:07:38.562Z,62.67
2018-01-12T09:10:06.040Z,63.87
2018-01-12T09:12:33.478Z,57.93
2018-01-12T09:15:06.763Z,63.77
2018-01-12T09:17:46.138Z,65.13
2018-01-12T09:20:18.476Z,65.33
2018-01-12T09:22:48.090Z,59.83
2018-01-12T09:25:26.085Z,63.80
2018-01-12T09:27:53.547Z,60.87
2018-01-12T09:30:21.008Z,62.97
2018-01-12T09:32:50.091Z,58.73
2018-01-12T09:35:17.560Z,63.47
2018-01-12T09:37:45.023Z,57.60
2018-01-12T09:40:32.099Z,54.07
2018-01-12T09:43:00.369Z,57.77
2018-01-12T09:45:27.852Z,59.67
2018-01-12T09:48:07.298Z,54.83
2018-01-12T09:50:34.801Z,63.30
2018-01-12T09:53:03.031Z,58.00
2018-01-12T09:55:31.389Z,58.93
2018-01-12T09:57:58.855Z,63.20
2018-01-12T10:00:28.259Z,60.80
2018-01-12T10:02:55.752Z,59.33
2018-01-12T10:05:23.191Z,62.73
2018-01-12T10:21:41.589Z,53.20
2018-01-12T10:24:09.043Z,63.10
2018-01-12T10:26:36.502Z,60.63
2018-01-12T10:29:06.715Z,59.23
2018-01-12T10:31:45.962Z,60.87
2018-01-12T10:34:13.440Z,61.80
2018-01-12T10:37:02.566Z,56.80
2018-01-12T10:39:30.064Z,62.13
2018-01-12T10:42:04.191Z,60.97
2018-01-12T10:44:31.689Z,60.77
2018-01-12T10:47:29.630Z,60.83
2018-01-12T10:52:57.646Z,56.67
2018-01-12T10:55:25.125Z,61.90
2018-01-12T10:57:52.622Z,62.53
2018-01-12T11:00:31.282Z,57.77
2018-01-12T11:02:58.792Z,62.43
2018-01-12T11:05:26.250Z,64.87
2018-01-12T11:07:53.710Z,60.83
2018-01-12T11:10:21.174Z,51.60
2018-01-12T11:12:48.638Z,57.70
2018-01-12T11:15:16.853Z,58.83
2018-01-12T11:17:44.319Z,62.27
2018-01-12T11:20:12.608Z,65.60
2018-01-12T11:22:40.080Z,57.53
2018-01-12T11:25:07.618Z,55.93
2018-01-12T11:27:35.097Z,60.37
2018-01-12T11:30:02.594Z,56.80
2018-01-12T11:32:31.811Z,49.63
2018-01-12T11:34:59.277Z,56.97
2018-01-12T11:37:26.763Z,56.70
2018-01-12T11:39:54.214Z,53.27
2018-01-12T11:42:21.676Z,55.57
2018-01-12T11:44:49.932Z,57.93
2018-01-12T11:47:17.384Z,55.90
2018-01-12T11:49:44.868Z,59.73
2018-01-12T11:52:12.351Z,56.67
2018-01-12T11:54:39.833Z,55.13
2018-01-12T11:57:07.319Z,54.03
2018-01-12T11:59:34.847Z,54.23
2018-01-12T12:02:02.287Z,52.60
2018-01-12T12:04:29.751Z,55.47
2018-01-12T12:06:57.258Z,52.90
2018-01-12T12:09:25.571Z,50.73
2018-01-12T12:11:53.821Z,53.47
2018-01-12T12:14:21.402Z,52.37
2018-01-12T12:16:48.872Z,53.77
2018-01-12T12:19:16.386Z,52.87
2018-01-12T12:21:43.871Z,54.93
2018-01-12T12:24:11.378Z,55.60
2018-01-12T12:26:38.845Z,53.27
2018-01-12T12:29:06.311Z,52.93
2018-01-12T12:31:33.819Z,52.10
2018-01-12T12:34:01.328Z,50.33
2018-01-12T12:36:29.565Z,53.07
2018-01-12T12:38:57.073Z,49.47
2018-01-12T12:41:24.620Z,52.10
2018-01-12T12:43:52.139Z,48.53
2018-01-12T12:46:19.619Z,47.73
2018-01-12T12:48:47.081Z,45.83
2018-01-12T12:51:14.684Z,48.03
2018-01-12T12:53:42.179Z,48.00
2018-01-12T12:56:10.426Z,47.67
2018-01-12T12:58:37.973Z,50.20
2018-01-12T13:01:06.230Z,49.43
2018-01-12T13:03:33.696Z,45.27
2018-01-12T13:06:01.198Z,50.77
2018-01-12T13:08:28.665Z,49.13
2018-01-12T13:10:56.118Z,47.73
2018-01-12T13:13:23.599Z,47.83
2018-01-12T13:15:51.098Z,49.13
2018-01-12T13:18:18.623Z,49.90
2018-01-12T13:20:46.953Z,47.37
2018-01-12T13:23:14.437Z,48.10
2018-01-12T13:25:42.519Z,49.10
2018-01-12T13:28:10.034Z,47.40
2018-01-12T13:30:37.609Z,45.40
2018-01-12T13:33:05.538Z,46.53
2018-01-12T13:35:33.014Z,44.93
2018-01-12T13:38:00.527Z,43.87
2018-01-12T13:40:28.758Z,42.80
2018-01-12T13:42:56.257Z,46.37
2018-01-12T13:45:23.804Z,45.80
2018-01-12T13:47:51.295Z,44.07
2018-01-12T13:50:19.823Z,44.07
2018-01-12T13:52:47.774Z,47.17
2018-01-12T13:55:15.972Z,46.40
2018-01-12T13:57:43.433Z,48.33
2018-01-12T14:00:10.962Z,47.33
2018-01-12T14:02:38.428Z,43.07
2018-01-12T14:05:05.918Z,47.17
2018-01-12T14:07:33.414Z,44.80
2018-01-12T14:10:00.910Z,46.10
2018-01-12T14:12:28.385Z,45.73
2018-01-12T14:14:55.897Z,43.73
2018-01-12T14:17:23.376Z,43.97
2018-01-12T14:19:50.841Z,42.20
2018-01-12T14:22:19.122Z,41.67
2018-01-12T14:24:46.588Z,41.27
2018-01-12T14:27:14.054Z,39.67
2018-01-12T14:29:41.534Z,38.37
2018-01-12T14:32:09.051Z,38.03
2018-01-12T14:34:36.510Z,36.43
2018-01-12T14:37:03.967Z,37.70
2018-01-12T14:39:31.483Z,39.97
2018-01-12T14:41:58.973Z,38.43
2018-01-12T14:44:26.537Z,37.47
2018-01-12T14:46:54.062Z,41.60
2018-01-12T14:49:21.555Z,38.53
2018-01-12T14:51:49.423Z,38.70
2018-01-12T14:54:17.651Z,36.27
2018-01-12T14:56:45.143Z,36.30
2018-01-12T14:59:12.619Z,38.47
2018-01-12T15:01:40.120Z,37.70
2018-01-12T15:04:07.642Z,38.30
2018-01-12T15:06:35.947Z,35.07
2018-01-12T15:09:03.464Z,36.43
2018-01-12T15:11:30.905Z,35.33
2018-01-12T15:13:59.054Z,33.93
2018-01-12T15:16:27.024Z,37.40
2018-01-12T15:18:55.804Z,38.83
2018-01-12T15:21:23.838Z,39.10
2018-01-12T15:23:52.396Z,37.43
2018-01-12T15:26:20.594Z,37.37
2018-01-12T15:28:48.635Z,38.43
2018-01-12T15:31:16.123Z,39.40
2018-01-12T15:33:44.396Z,40.07
2018-01-12T15:36:12.459Z,36.00
2018-01-12T15:38:40.118Z,40.17
2018-01-12T15:41:08.038Z,39.57
2018-01-12T15:43:36.531Z,41.53
2018-01-12T15:46:05.018Z,39.13
2018-01-12T15:48:34.201Z,37.83
2018-01-12T15:51:01.709Z,39.33
2018-01-12T15:53:31.368Z,39.00
2018-01-12T15:55:58.840Z,37.97
2018-01-12T15:58:27.733Z,34.57
2018-01-12T16:00:55.190Z,35.63
2018-01-12T16:03:27.379Z,35.30
2018-01-12T16:05:55.104Z,35.17
2018-01-12T16:08:23.839Z,35.07
2018-01-12T16:10:51.514Z,34.23
2018-01-12T16:13:20.611Z,34.90
2018-01-12T16:15:50.625Z,37.57
2018-01-12T16:18:19.425Z,32.93
2018-01-12T16:20:47.813Z,35.73
2018-01-12T16:23:15.290Z,30.90
2018-01-12T16:25:43.589Z,31.37
2018-01-12T16:28:11.435Z,33.10
2018-01-12T16:30:38.909Z,32.57
2018-01-12T16:33:08.503Z,33.50
2018-01-12T16:35:37.751Z,32.67
2018-01-12T16:38:06.561Z,32.07
2018-01-12T16:40:35.999Z,31.93
2018-01-12T16:43:04.937Z,33.43
2018-01-12T16:45:34.017Z,33.23
2018-01-12T16:48:02.267Z,34.90
2018-01-12T16:50:30.755Z,31.93
2018-01-12T16:52:59.727Z,32.40
2018-01-12T16:55:28.527Z,33.27
2018-01-12T16:57:56.795Z,30.03
2018-01-12T17:00:24.783Z,33.10
2018-01-12T17:02:54.595Z,35.63
2018-01-12T17:05:23.240Z,36.13
2018-01-12T17:07:53.104Z,34.70
2018-01-12T17:10:21.714Z,33.77
2018-01-12T17:12:56.529Z,34.33
2018-01-12T17:15:25.379Z,31.63
2018-01-12T17:17:56.342Z,33.90
2018-01-12T17:20:25.270Z,35.53
2018-01-12T17:22:57.178Z,33.40
2018-01-12T17:25:26.515Z,35.30
2018-01-12T17:27:57.085Z,35.43
2018-01-12T17:30:26.928Z,32.03
2018-01-12T17:32:55.723Z,33.50
2018-01-12T17:35:25.280Z,33.53
2018-01-12T17:37:57.143Z,33.87
2018-01-12T17:40:27.442Z,35.23
2018-01-12T17:42:59.018Z,33.50
2018-01-12T17:45:29.256Z,36.10
2018-01-12T17:47:58.392Z,35.20
2018-01-12T17:50:27.104Z,31.27
2018-01-12T17:52:55.149Z,34.73
2018-01-12T17:55:25.347Z,35.97
2018-01-12T17:57:54.275Z,34.47
2018-01-12T18:00:24.119Z,37.63
2018-01-12T18:02:52.891Z,32.07
2018-01-12T18:05:25.864Z,35.63
2018-01-12T18:07:56.781Z,34.13
2018-01-12T18:10:24.946Z,29.57
2018-01-12T18:12:53.649Z,36.17
2018-01-12T18:15:24.023Z,36.90
2018-01-12T18:17:54.403Z,36.63
2018-01-12T18:20:24.033Z,35.13
2018-01-12T18:22:53.953Z,36.77
2018-01-12T18:25:23.865Z,36.33
2018-01-12T18:27:51.897Z,35.40
2018-01-12T18:30:21.249Z,37.63
2018-01-12T18:32:50.564Z,37.13
2018-01-12T18:35:21.079Z,36.20
2018-01-12T18:37:49.449Z,35.97
2018-01-12T18:40:18.600Z,36.30
2018-01-12T18:42:46.434Z,36.53
2018-01-12T18:45:14.319Z,37.50
2018-01-12T18:47:43.836Z,36.53
2018-01-12T18:50:12.156Z,40.40
2018-01-12T18:52:40.131Z,38.93
2018-01-12T18:55:08.435Z,41.67
2018-01-12T18:57:35.960Z,41.83
2018-01-12T19:00:06.645Z,41.70
2018-01-12T19:02:34.364Z,41.27
2018-01-12T19:05:03.338Z,43.77
2018-01-12T19:07:31.762Z,40.23
2018-01-12T19:10:00.064Z,42.40
2018-01-12T19:12:27.864Z,43.70
2018-01-12T19:14:55.352Z,43.43
2018-01-12T19:17:22.850Z,42.70
2018-01-12T19:19:51.350Z,41.17
2018-01-12T19:22:18.883Z,40.57
2018-01-12T19:24:47.162Z,42.33
2018-01-12T19:27:14.630Z,41.73
2018-01-12T19:29:42.143Z,40.00
2018-01-12T19:32:10.511Z,41.67
2018-01-12T19:34:38.029Z,38.60
2018-01-12T19:37:06.268Z,42.07
2018-01-12T19:39:34.699Z,40.70
2018-01-12T19:42:05.359Z,40.37
2018-01-12T19:44:34.051Z,41.63
2018-01-12T19:47:03.230Z,40.80
2018-01-12T19:49:31.742Z,41.30
2018-01-12T19:52:02.023Z,41.13
2018-01-12T19:54:31.935Z,39.87
2018-01-12T19:56:59.964Z,39.27
2018-01-12T19:59:29.490Z,39.10
2018-01-12T20:01:57.767Z,39.50
2018-01-12T20:04:25.279Z,40.90
2018-01-12T20:06:53.877Z,41.43
2018-01-12T20:09:22.247Z,37.93
2018-01-12T20:11:49.755Z,37.63
2018-01-12T20:14:20.172Z,37.73
2018-01-12T20:16:47.655Z,40.67
2018-01-12T20:19:17.636Z,40.50
2018-01-12T20:21:47.858Z,40.23
2018-01-12T20:24:17.665Z,39.97
2018-01-12T20:26:45.149Z,39.77
2018-01-12T20:29:12.705Z,38.27
2018-01-12T20:31:40.200Z,40.17
2018-01-12T20:34:08.303Z,39.20
2018-01-12T20:36:36.084Z,39.93
2018-01-12T20:39:07.710Z,39.57
2018-01-12T20:41:35.967Z,40.53
2018-01-12T20:44:04.220Z,39.63
2018-01-12T20:46:32.392Z,39.27
2018-01-12T20:48:59.877Z,40.40
2018-01-12T20:51:30.037Z,37.43
2018-01-12T20:53:58.940Z,39.37
2018-01-12T20:56:26.420Z,40.30
2018-01-12T20:58:54.006Z,38.93
2018-01-12T21:01:21.487Z,41.67
2018-01-12T21:03:48.948Z,42.23
2018-01-12T21:06:19.099Z,40.70
2018-01-12T21:08:46.651Z,41.67
2018-01-12T21:11:14.898Z,38.93
2018-01-12T21:13:43.203Z,40.50
2018-01-12T21:16:10.722Z,41.87
2018-01-12T21:18:39.085Z,41.43
2018-01-12T21:21:06.564Z,41.33
2018-01-12T21:23:34.515Z,42.80
2018-01-12T21:26:01.983Z,42.40
2018-01-12T21:28:30.281Z,41.97
2018-01-12T21:30:57.775Z,41.70
2018-01-12T21:33:25.267Z,41.23
2018-01-12T21:35:52.800Z,40.13
2018-01-12T21:38:23.260Z,38.30
2018-01-12T21:40:50.776Z,41.53
2018-01-12T21:43:18.249Z,39.47
2018-01-12T21:45:46.071Z,39.10
2018-01-12T21:48:13.559Z,41.43
2018-01-12T21:50:41.315Z,44.30
2018-01-12T21:53:08.811Z,41.87
2018-01-12T21:55:36.306Z,39.47
2018-01-12T21:58:03.775Z,40.97
2018-01-12T22:00:31.650Z,41.23
2018-01-12T22:03:01.112Z,42.30
2018-01-12T22:05:29.945Z,41.90
2018-01-12T22:07:59.061Z,40.83
2018-01-12T22:10:27.759Z,41.27
2018-01-12T22:12:55.262Z,40.80
2018-01-12T22:15:23.562Z,39.10
2018-01-12T22:17:51.079Z,39.63
2018-01-12T22:20:18.576Z,40.40
2018-01-12T22:22:46.109Z,40.60
2018-01-12T22:25:13.574Z,38.83
2018-01-12T22:27:41.795Z,38.93
2018-01-12T22:30:09.293Z,35.27
2018-01-12T22:32:36.752Z,39.83
2018-01-12T22:35:04.222Z,40.07
2018-01-12T22:37:32.796Z,39.33
2018-01-12T22:40:00.305Z,41.20
2018-01-12T22:42:28.820Z,38.87
2018-01-12T22:44:57.063Z,38.83
2018-01-12T22:47:24.560Z,38.20
2018-01-12T22:49:52.030Z,41.20
2018-01-12T22:52:19.543Z,38.60
2018-01-12T22:54:47.767Z,38.93
2018-01-12T22:57:15.257Z,37.40
2018-01-12T22:59:42.743Z,39.13
2018-01-12T23:02:10.228Z,39.47
2018-01-12T23:04:37.708Z,42.67
2018-01-12T23:07:05.200Z,39.53
2018-01-12T23:09:32.676Z,41.30
2018-01-12T23:12:00.133Z,40.47
2018-01-12T23:14:27.679Z,40.47
2018-01-12T23:16:55.168Z,39.17
2018-01-12T23:19:22.652Z,36.47
2018-01-12T23:21:50.887Z,39.00
2018-01-12T23:24:18.375Z,37.47
2018-01-12T23:26:45.839Z,39.33
2018-01-12T23:31:54.191Z,40.90
2018-01-12T23:34:21.653Z,38.17
2018-01-12T23:36:49.134Z,38.43
2018-01-12T23:39:16.602Z,37.67
2018-01-12T23:41:44.838Z,38.93
2018-01-12T23:44:12.343Z,36.57
2018-01-12T23:46:39.805Z,36.90
2018-01-12T23:49:07.274Z,37.80
2018-01-12T23:51:34.737Z,37.57
2018-01-12T23:54:02.192Z,38.07
2018-01-12T23:56:30.403Z,35.57
2018-01-12T23:58:57.982Z,36.67
